sensor_id;sensor_type;location;lat;lon;timestamp;pressure;altitude;pressure_sealevel;temperature;humidity
67052;BME280;53957;47.222;18.670;2023-04-25T00:00:04;99190.00;;;11.02;100.00
67052;BME280;53957;47.222;18.670;2023-04-25T00:03:13;99188.25;;;10.88;100.00
67052;BME280;53957;47.222;18.670;2023-04-25T00:06:16;99184.03;;;10.96;100.00
67052;BME280;53957;47.222;18.670;2023-04-25T00:09:20;99180.25;;;10.88;100.00
67052;BME280;53957;47.222;18.670;2023-04-25T00:12:23;99177.16;;;11.04;100.00
67052;BME280;53957;47.222;18.670;2023-04-25T00:15:26;99176.47;;;10.81;100.00
67052;BME280;53957;47.222;18.670;2023-04-25T00:18:29;99174.91;;;10.88;100.00
67052;BME280;53957;47.222;18.670;2023-04-25T00:21:32;99170.81;;;10.82;100.00
67052;BME280;53957;47.222;18.670;2023-04-25T00:24:35;99158.41;;;10.86;100.00
67052;BME280;53957;47.222;18.670;2023-04-25T00:27:38;99169.22;;;10.81;100.00
67052;BME280;53957;47.222;18.670;2023-04-25T00:30:42;99171.75;;;10.86;100.00
67052;BME280;53957;47.222;18.670;2023-04-25T00:33:45;99170.19;;;10.85;100.00
67052;BME280;53957;47.222;18.670;2023-04-25T00:36:48;99172.88;;;10.94;100.00
67052;BME280;53957;47.222;18.670;2023-04-25T00:39:51;99167.50;;;10.85;100.00
67052;BME280;53957;47.222;18.670;2023-04-25T00:42:56;99165.66;;;10.86;100.00
67052;BME280;53957;47.222;18.670;2023-04-25T00:46:00;99160.13;;;10.82;100.00
67052;BME280;53957;47.222;18.670;2023-04-25T00:49:03;99167.69;;;10.89;100.00
67052;BME280;53957;47.222;18.670;2023-04-25T00:52:06;99165.66;;;10.86;100.00
67052;BME280;53957;47.222;18.670;2023-04-25T00:55:11;99165.50;;;10.91;100.00
67052;BME280;53957;47.222;18.670;2023-04-25T00:58:15;99166.91;;;10.88;100.00
67052;BME280;53957;47.222;18.670;2023-04-25T01:01:18;99164.97;;;10.80;100.00
67052;BME280;53957;47.222;18.670;2023-04-25T01:04:21;99165.50;;;10.91;100.00
67052;BME280;53957;47.222;18.670;2023-04-25T01:07:25;99170.66;;;10.87;100.00
67052;BME280;53957;47.222;18.670;2023-04-25T01:10:29;99168.13;;;10.82;100.00
67052;BME280;53957;47.222;18.670;2023-04-25T01:13:34;99154.03;;;10.90;100.00
67052;BME280;53957;47.222;18.670;2023-04-25T01:16:37;99166.72;;;10.85;100.00
67052;BME280;53957;47.222;18.670;2023-04-25T01:19:40;99165.97;;;10.84;100.00
67052;BME280;53957;47.222;18.670;2023-04-25T01:22:43;99161.53;;;10.79;100.00
67052;BME280;53957;47.222;18.670;2023-04-25T01:25:47;99158.88;;;10.79;100.00
67052;BME280;53957;47.222;18.670;2023-04-25T01:28:50;99159.22;;;10.87;100.00
67052;BME280;53957;47.222;18.670;2023-04-25T01:31:53;99149.47;;;10.82;100.00
67052;BME280;53957;47.222;18.670;2023-04-25T01:34:57;99148.53;;;10.78;100.00
67052;BME280;53957;47.222;18.670;2023-04-25T01:38:01;99151.78;;;10.75;100.00
67052;BME280;53957;47.222;18.670;2023-04-25T01:41:04;99163.75;;;10.86;100.00
67052;BME280;53957;47.222;18.670;2023-04-25T01:44:08;99156.03;;;10.76;100.00
67052;BME280;53957;47.222;18.670;2023-04-25T01:47:11;99146.47;;;10.84;100.00
67052;BME280;53957;47.222;18.670;2023-04-25T01:50:15;99151.22;;;10.87;100.00
67052;BME280;53957;47.222;18.670;2023-04-25T01:53:18;99145.53;;;10.79;100.00
67052;BME280;53957;47.222;18.670;2023-04-25T01:56:22;99146.31;;;10.80;100.00
67052;BME280;53957;47.222;18.670;2023-04-25T01:59:24;99152.75;;;10.79;100.00
67052;BME280;53957;47.222;18.670;2023-04-25T02:02:28;99156.03;;;10.76;100.00
67052;BME280;53957;47.222;18.670;2023-04-25T02:05:35;99154.03;;;10.82;100.00
67052;BME280;53957;47.222;18.670;2023-04-25T02:08:39;99161.22;;;10.72;100.00
67052;BME280;53957;47.222;18.670;2023-04-25T02:11:43;99171.09;;;10.72;100.00
67052;BME280;53957;47.222;18.670;2023-04-25T02:14:49;99161.66;;;10.66;100.00
67052;BME280;53957;47.222;18.670;2023-04-25T02:17:52;99160.88;;;10.74;100.00
67052;BME280;53957;47.222;18.670;2023-04-25T02:20:59;99164.63;;;10.64;100.00
67052;BME280;53957;47.222;18.670;2023-04-25T02:24:03;99168.13;;;10.73;100.00
67052;BME280;53957;47.222;18.670;2023-04-25T02:27:06;99166.53;;;10.72;100.00
67052;BME280;53957;47.222;18.670;2023-04-25T02:30:10;99166.03;;;10.61;100.00
67052;BME280;53957;47.222;18.670;2023-04-25T02:33:14;99170.41;;;10.57;100.00
67052;BME280;53957;47.222;18.670;2023-04-25T02:36:19;99173.09;;;10.66;100.00
67052;BME280;53957;47.222;18.670;2023-04-25T02:39:23;99157.28;;;10.70;100.00
67052;BME280;53957;47.222;18.670;2023-04-25T02:42:27;99162.91;;;10.59;100.00
67052;BME280;53957;47.222;18.670;2023-04-25T02:45:31;99173.22;;;10.52;100.00
67052;BME280;53957;47.222;18.670;2023-04-25T02:48:34;99179.50;;;10.56;100.00
67052;BME280;53957;47.222;18.670;2023-04-25T02:51:37;99171.34;;;10.53;100.00
67052;BME280;53957;47.222;18.670;2023-04-25T02:54:40;99169.87;;;10.46;100.00
67052;BME280;53957;47.222;18.670;2023-04-25T02:57:43;99180.13;;;10.53;100.00
67052;BME280;53957;47.222;18.670;2023-04-25T03:00:46;99173.81;;;10.49;100.00
67052;BME280;53957;47.222;18.670;2023-04-25T03:03:50;99173.81;;;10.49;100.00
67052;BME280;53957;47.222;18.670;2023-04-25T03:06:53;99176.63;;;10.44;100.00
67052;BME280;53957;47.222;18.670;2023-04-25T03:09:56;99180.31;;;10.57;100.00
67052;BME280;53957;47.222;18.670;2023-04-25T03:13:00;99187.47;;;10.47;100.00
67052;BME280;53957;47.222;18.670;2023-04-25T03:16:02;99189.47;;;10.42;100.00
67052;BME280;53957;47.222;18.670;2023-04-25T03:19:06;99178.19;;;10.45;100.00
67052;BME280;53957;47.222;18.670;2023-04-25T03:22:08;99180.25;;;10.48;100.00
67052;BME280;53957;47.222;18.670;2023-04-25T03:25:18;99181.47;;;10.42;100.00
67052;BME280;53957;47.222;18.670;2023-04-25T03:28:21;99187.75;;;10.37;100.00
67052;BME280;53957;47.222;18.670;2023-04-25T03:31:25;99189.00;;;10.40;100.00
67052;BME280;53957;47.222;18.670;2023-04-25T03:34:28;99192.19;;;10.28;100.00
67052;BME280;53957;47.222;18.670;2023-04-25T03:37:31;99201.88;;;10.46;100.00
67052;BME280;53957;47.222;18.670;2023-04-25T03:40:34;99195.91;;;10.41;100.00
67052;BME280;53957;47.222;18.670;2023-04-25T03:43:40;99207.28;;;10.32;100.00
67052;BME280;53957;47.222;18.670;2023-04-25T03:46:44;99201.00;;;10.28;100.00
67052;BME280;53957;47.222;18.670;2023-04-25T03:49:47;99198.03;;;10.30;100.00
67052;BME280;53957;47.222;18.670;2023-04-25T03:52:52;99202.84;;;10.28;100.00
67052;BME280;53957;47.222;18.670;2023-04-25T03:55:55;99205.47;;;10.19;100.00
67052;BME280;53957;47.222;18.670;2023-04-25T03:58:58;99204.62;;;10.10;100.00
67052;BME280;53957;47.222;18.670;2023-04-25T04:02:01;99210.31;;;10.17;100.00
67052;BME280;53957;47.222;18.670;2023-04-25T04:05:06;99204.75;;;10.05;100.00
67052;BME280;53957;47.222;18.670;2023-04-25T04:08:11;99206.94;;;10.03;100.00
67052;BME280;53957;47.222;18.670;2023-04-25T04:11:14;99210.28;;;9.86;100.00
67052;BME280;53957;47.222;18.670;2023-04-25T04:14:17;99209.97;;;9.64;100.00
67052;BME280;53957;47.222;18.670;2023-04-25T04:17:20;99218.91;;;9.69;100.00
67052;BME280;53957;47.222;18.670;2023-04-25T04:20:23;99212.34;;;9.52;100.00
67052;BME280;53957;47.222;18.670;2023-04-25T04:23:27;99216.09;;;9.51;100.00
67052;BME280;53957;47.222;18.670;2023-04-25T04:26:32;99208.03;;;9.42;100.00
67052;BME280;53957;47.222;18.670;2023-04-25T04:29:36;99210.97;;;9.41;100.00
67052;BME280;53957;47.222;18.670;2023-04-25T04:32:39;99213.44;;;9.51;100.00
67052;BME280;53957;47.222;18.670;2023-04-25T04:35:42;99206.66;;;9.45;100.00
67052;BME280;53957;47.222;18.670;2023-04-25T04:38:46;99212.28;;;9.29;100.00
67052;BME280;53957;47.222;18.670;2023-04-25T04:41:51;99213.69;;;9.27;100.00
67052;BME280;53957;47.222;18.670;2023-04-25T04:44:57;99219.06;;;9.35;100.00
67052;BME280;53957;47.222;18.670;2023-04-25T04:48:01;99214.78;;;9.12;100.00
67052;BME280;53957;47.222;18.670;2023-04-25T04:51:06;99225.81;;;9.19;100.00
67052;BME280;53957;47.222;18.670;2023-04-25T04:54:10;99217.56;;;9.07;100.00
67052;BME280;53957;47.222;18.670;2023-04-25T04:57:13;99216.75;;;9.06;100.00
67052;BME280;53957;47.222;18.670;2023-04-25T05:00:16;99219.12;;;9.08;100.00
67052;BME280;53957;47.222;18.670;2023-04-25T05:03:19;99214.50;;;8.99;100.00
67052;BME280;53957;47.222;18.670;2023-04-25T05:06:23;99213.53;;;8.95;100.00
67052;BME280;53957;47.222;18.670;2023-04-25T05:09:26;99218.34;;;8.93;100.00
67052;BME280;53957;47.222;18.670;2023-04-25T05:12:29;99218.63;;;8.92;100.00
67052;BME280;53957;47.222;18.670;2023-04-25T05:15:33;99205.81;;;8.80;100.00
67052;BME280;53957;47.222;18.670;2023-04-25T05:18:40;99214.31;;;8.82;100.00
67052;BME280;53957;47.222;18.670;2023-04-25T05:21:43;99218.81;;;9.09;100.00
67052;BME280;53957;47.222;18.670;2023-04-25T05:24:47;99217.06;;;9.05;100.00
67052;BME280;53957;47.222;18.670;2023-04-25T05:27:52;99210.16;;;9.17;100.00
67052;BME280;53957;47.222;18.670;2023-04-25T05:30:56;99209.63;;;9.29;100.00
67052;BME280;53957;47.222;18.670;2023-04-25T05:34:00;99214.44;;;9.41;100.00
67052;BME280;53957;47.222;18.670;2023-04-25T05:37:04;99213.81;;;9.58;100.00
67052;BME280;53957;47.222;18.670;2023-04-25T05:40:07;99211.66;;;9.83;100.00
67052;BME280;53957;47.222;18.670;2023-04-25T05:43:13;99211.34;;;10.07;100.00
67052;BME280;53957;47.222;18.670;2023-04-25T05:46:16;99218.31;;;10.40;100.00
67052;BME280;53957;47.222;18.670;2023-04-25T05:49:23;99222.03;;;10.61;100.00
67052;BME280;53957;47.222;18.670;2023-04-25T05:52:27;99220.66;;;10.73;100.00
67052;BME280;53957;47.222;18.670;2023-04-25T05:55:31;99214.63;;;10.99;100.00
67052;BME280;53957;47.222;18.670;2023-04-25T05:58:34;99210.78;;;11.22;100.00
67052;BME280;53957;47.222;18.670;2023-04-25T06:01:37;99216.75;;;10.79;100.00
67052;BME280;53957;47.222;18.670;2023-04-25T06:04:41;99219.75;;;10.86;100.00
67052;BME280;53957;47.222;18.670;2023-04-25T06:07:44;99234.53;;;10.92;100.00
67052;BME280;53957;47.222;18.670;2023-04-25T06:10:50;99226.25;;;10.94;100.00
67052;BME280;53957;47.222;18.670;2023-04-25T06:13:53;99230.31;;;10.91;100.00
67052;BME280;53957;47.222;18.670;2023-04-25T06:16:57;99228.03;;;10.67;100.00
67052;BME280;53957;47.222;18.670;2023-04-25T06:20:02;99231.06;;;10.83;100.00
67052;BME280;53957;47.222;18.670;2023-04-25T06:23:12;99243.56;;;10.74;100.00
67052;BME280;53957;47.222;18.670;2023-04-25T06:26:15;99243.78;;;10.86;100.00
67052;BME280;53957;47.222;18.670;2023-04-25T06:29:19;99243.03;;;10.94;100.00
67052;BME280;53957;47.222;18.670;2023-04-25T06:32:22;99250.97;;;10.77;100.00
67052;BME280;53957;47.222;18.670;2023-04-25T06:35:25;99250.88;;;11.00;100.00
67052;BME280;53957;47.222;18.670;2023-04-25T06:38:28;99253.59;;;11.08;100.00
67052;BME280;53957;47.222;18.670;2023-04-25T06:41:32;99252.50;;;11.18;100.00
67052;BME280;53957;47.222;18.670;2023-04-25T06:44:36;99246.22;;;11.14;100.00
67052;BME280;53957;47.222;18.670;2023-04-25T06:47:40;99246.13;;;11.37;100.00
67052;BME280;53957;47.222;18.670;2023-04-25T06:50:43;99245.00;;;11.29;100.00
67052;BME280;53957;47.222;18.670;2023-04-25T06:53:47;99251.31;;;11.42;100.00
67052;BME280;53957;47.222;18.670;2023-04-25T06:56:50;99249.75;;;11.32;100.00
67052;BME280;53957;47.222;18.670;2023-04-25T06:59:54;99260.69;;;11.22;100.00
67052;BME280;53957;47.222;18.670;2023-04-25T07:02:57;99259.47;;;11.46;100.00
67052;BME280;53957;47.222;18.670;2023-04-25T07:06:01;99252.06;;;11.25;100.00
67052;BME280;53957;47.222;18.670;2023-04-25T07:09:04;99258.03;;;11.22;100.00
67052;BME280;53957;47.222;18.670;2023-04-25T07:12:11;99251.44;;;11.28;100.00
67052;BME280;53957;47.222;18.670;2023-04-25T07:15:13;99251.78;;;11.44;100.00
67052;BME280;53957;47.222;18.670;2023-04-25T07:18:17;99245.06;;;11.90;100.00
67052;BME280;53957;47.222;18.670;2023-04-25T07:21:20;99243.03;;;11.96;100.00
67052;BME280;53957;47.222;18.670;2023-04-25T07:24:24;99247.28;;;12.23;100.00
67052;BME280;53957;47.222;18.670;2023-04-25T07:27:28;99247.34;;;12.62;100.00
67052;BME280;53957;47.222;18.670;2023-04-25T07:30:31;99236.69;;;12.45;100.00
67052;BME280;53957;47.222;18.670;2023-04-25T07:33:38;99245.31;;;12.98;98.82
67052;BME280;53957;47.222;18.670;2023-04-25T07:36:41;99238.19;;;12.72;96.23
67052;BME280;53957;47.222;18.670;2023-04-25T07:39:45;99241.88;;;12.41;98.29
67052;BME280;53957;47.222;18.670;2023-04-25T07:42:51;99244.03;;;12.56;97.71
67052;BME280;53957;47.222;18.670;2023-04-25T07:45:54;99240.63;;;12.38;98.88
67052;BME280;53957;47.222;18.670;2023-04-25T07:48:58;99239.37;;;12.36;100.00
67052;BME280;53957;47.222;18.670;2023-04-25T07:52:03;99241.22;;;12.53;99.54
67052;BME280;53957;47.222;18.670;2023-04-25T07:55:07;99245.09;;;12.73;100.00
67052;BME280;53957;47.222;18.670;2023-04-25T07:58:15;99236.06;;;13.46;96.51
67052;BME280;53957;47.222;18.670;2023-04-25T08:01:24;99243.06;;;13.60;94.06
67052;BME280;53957;47.222;18.670;2023-04-25T08:04:28;99234.75;;;13.95;92.29
67052;BME280;53957;47.222;18.670;2023-04-25T08:07:32;99237.50;;;14.20;92.10
67052;BME280;53957;47.222;18.670;2023-04-25T08:10:36;99241.19;;;14.48;90.83
67052;BME280;53957;47.222;18.670;2023-04-25T08:13:40;99238.69;;;15.02;84.88
67052;BME280;53957;47.222;18.670;2023-04-25T08:16:43;99240.38;;;14.94;82.65
67052;BME280;53957;47.222;18.670;2023-04-25T08:19:46;99235.62;;;14.66;85.94
67052;BME280;53957;47.222;18.670;2023-04-25T08:22:49;99243.03;;;14.81;86.45
67052;BME280;53957;47.222;18.670;2023-04-25T08:25:55;99240.78;;;14.84;86.07
67052;BME280;53957;47.222;18.670;2023-04-25T08:28:59;99241.00;;;14.66;85.35
67052;BME280;53957;47.222;18.670;2023-04-25T08:32:03;99251.31;;;15.01;82.79
67052;BME280;53957;47.222;18.670;2023-04-25T08:35:08;99245.00;;;14.60;84.44
67052;BME280;53957;47.222;18.670;2023-04-25T08:38:10;99246.78;;;14.22;87.37
67052;BME280;53957;47.222;18.670;2023-04-25T08:41:14;99254.56;;;14.36;84.52
67052;BME280;53957;47.222;18.670;2023-04-25T08:44:19;99258.16;;;14.07;89.19
67052;BME280;53957;47.222;18.670;2023-04-25T08:47:24;99264.44;;;13.90;87.50
67052;BME280;53957;47.222;18.670;2023-04-25T08:50:29;99261.78;;;14.23;90.33
67052;BME280;53957;47.222;18.670;2023-04-25T08:53:33;99267.72;;;14.29;91.36
67052;BME280;53957;47.222;18.670;2023-04-25T08:56:38;99266.94;;;14.62;82.50
67052;BME280;53957;47.222;18.670;2023-04-25T08:59:44;99272.78;;;14.43;86.41
67052;BME280;53957;47.222;18.670;2023-04-25T09:02:48;99259.66;;;15.49;84.08
67052;BME280;53957;47.222;18.670;2023-04-25T09:05:53;99262.44;;;15.53;82.56
67052;BME280;53957;47.222;18.670;2023-04-25T09:09:03;99252.75;;;15.76;78.72
67052;BME280;53957;47.222;18.670;2023-04-25T09:12:07;99252.53;;;15.94;74.01
67052;BME280;53957;47.222;18.670;2023-04-25T09:15:12;99251.78;;;15.69;75.68
67052;BME280;53957;47.222;18.670;2023-04-25T09:18:25;99255.00;;;14.84;82.06
67052;BME280;53957;47.222;18.670;2023-04-25T09:21:32;99246.50;;;15.19;79.08
67052;BME280;53957;47.222;18.670;2023-04-25T09:24:42;99250.66;;;14.92;78.40
67052;BME280;53957;47.222;18.670;2023-04-25T09:27:50;99253.66;;;14.44;81.74
67052;BME280;53957;47.222;18.670;2023-04-25T09:30:56;99254.78;;;14.77;80.99
67052;BME280;53957;47.222;18.670;2023-04-25T09:34:07;99260.91;;;14.65;84.68
67052;BME280;53957;47.222;18.670;2023-04-25T09:37:10;99253.22;;;14.30;84.50
67052;BME280;53957;47.222;18.670;2023-04-25T09:40:17;99251.53;;;15.21;82.42
67052;BME280;53957;47.222;18.670;2023-04-25T09:43:23;99248.06;;;15.73;77.91
67052;BME280;53957;47.222;18.670;2023-04-25T09:46:33;99250.78;;;15.61;77.08
67052;BME280;53957;47.222;18.670;2023-04-25T09:49:39;99253.09;;;16.16;70.97
67052;BME280;53957;47.222;18.670;2023-04-25T09:52:43;99256.81;;;16.71;70.63
67052;BME280;53957;47.222;18.670;2023-04-25T09:55:48;99244.91;;;16.56;68.77
67052;BME280;53957;47.222;18.670;2023-04-25T09:58:53;99261.41;;;16.10;73.89
67052;BME280;53957;47.222;18.670;2023-04-25T10:01:58;99256.69;;;16.07;68.42
67052;BME280;53957;47.222;18.670;2023-04-25T10:05:05;99244.53;;;16.42;68.39
67052;BME280;53957;47.222;18.670;2023-04-25T10:08:11;99248.63;;;16.84;65.77
67052;BME280;53957;47.222;18.670;2023-04-25T10:11:16;99253.00;;;16.12;64.60
67052;BME280;53957;47.222;18.670;2023-04-25T10:14:19;99236.03;;;16.24;65.07
67052;BME280;53957;47.222;18.670;2023-04-25T10:17:23;99249.09;;;16.09;64.88
67052;BME280;53957;47.222;18.670;2023-04-25T10:20:26;99238.56;;;16.04;68.50
67052;BME280;53957;47.222;18.670;2023-04-25T10:23:30;99242.00;;;16.33;69.06
67052;BME280;53957;47.222;18.670;2023-04-25T10:26:33;99243.84;;;16.29;70.11
67052;BME280;53957;47.222;18.670;2023-04-25T10:29:36;99236.81;;;16.88;63.64
67052;BME280;53957;47.222;18.670;2023-04-25T10:32:41;99250.91;;;17.14;62.68
67052;BME280;53957;47.222;18.670;2023-04-25T10:35:45;99239.91;;;17.38;61.42
67052;BME280;53957;47.222;18.670;2023-04-25T10:38:49;99246.56;;;17.09;61.05
67052;BME280;53957;47.222;18.670;2023-04-25T10:41:57;99248.03;;;16.42;63.94
67052;BME280;53957;47.222;18.670;2023-04-25T10:45:02;99243.91;;;16.17;67.18
67052;BME280;53957;47.222;18.670;2023-04-25T10:48:27;99256.91;;;16.75;65.58
67052;BME280;53957;47.222;18.670;2023-04-25T10:51:31;99262.16;;;17.35;65.76
67052;BME280;53957;47.222;18.670;2023-04-25T10:54:57;99258.75;;;16.26;64.80
67052;BME280;53957;47.222;18.670;2023-04-25T10:58:00;99262.28;;;17.07;61.20
67052;BME280;53957;47.222;18.670;2023-04-25T11:01:03;99265.62;;;17.00;62.40
67052;BME280;53957;47.222;18.670;2023-04-25T11:07:38;99266.19;;;17.10;60.90
67052;BME280;53957;47.222;18.670;2023-04-25T11:10:41;99255.34;;;17.42;60.29
67052;BME280;53957;47.222;18.670;2023-04-25T11:13:49;99253.91;;;16.48;59.22
67052;BME280;53957;47.222;18.670;2023-04-25T11:16:59;99260.88;;;15.52;60.21
67052;BME280;53957;47.222;18.670;2023-04-25T11:20:03;99269.59;;;16.14;58.81
67052;BME280;53957;47.222;18.670;2023-04-25T11:23:10;99266.72;;;16.67;59.87
67052;BME280;53957;47.222;18.670;2023-04-25T11:26:13;99271.34;;;16.67;55.35
67052;BME280;53957;47.222;18.670;2023-04-25T11:29:17;99278.28;;;16.23;59.26
67052;BME280;53957;47.222;18.670;2023-04-25T11:32:20;99270.19;;;16.84;59.04
67052;BME280;53957;47.222;18.670;2023-04-25T11:35:24;99270.72;;;17.21;57.46
67052;BME280;53957;47.222;18.670;2023-04-25T11:38:28;99275.25;;;16.69;57.39
67052;BME280;53957;47.222;18.670;2023-04-25T11:41:31;99267.44;;;16.20;59.65
67052;BME280;53957;47.222;18.670;2023-04-25T11:44:35;99265.28;;;16.41;54.83
67052;BME280;53957;47.222;18.670;2023-04-25T11:47:40;99265.72;;;15.99;58.66
67052;BME280;53957;47.222;18.670;2023-04-25T11:50:43;99264.75;;;16.36;56.59
67052;BME280;53957;47.222;18.670;2023-04-25T11:53:46;99273.16;;;15.77;57.62
67052;BME280;53957;47.222;18.670;2023-04-25T11:56:49;99262.63;;;15.85;56.83
67052;BME280;53957;47.222;18.670;2023-04-25T11:59:52;99278.13;;;15.51;61.71
67052;BME280;53957;47.222;18.670;2023-04-25T12:02:56;99264.09;;;15.82;60.13
67052;BME280;53957;47.222;18.670;2023-04-25T12:06:04;99271.88;;;15.46;55.11
67052;BME280;53957;47.222;18.670;2023-04-25T12:09:12;99268.38;;;15.58;58.21
67052;BME280;53957;47.222;18.670;2023-04-25T12:12:21;99261.66;;;16.34;56.76
67052;BME280;53957;47.222;18.670;2023-04-25T12:15:25;99260.16;;;15.92;51.83
67052;BME280;53957;47.222;18.670;2023-04-25T12:18:29;99272.34;;;15.36;58.00
67052;BME280;53957;47.222;18.670;2023-04-25T12:21:35;99269.22;;;16.16;55.83
67052;BME280;53957;47.222;18.670;2023-04-25T12:24:58;99259.16;;;16.13;52.08
67052;BME280;53957;47.222;18.670;2023-04-25T12:28:25;99257.91;;;15.94;53.69
67052;BME280;53957;47.222;18.670;2023-04-25T12:31:30;99254.13;;;15.83;56.57
67052;BME280;53957;47.222;18.670;2023-04-25T12:34:34;99260.03;;;15.88;55.63
67052;BME280;53957;47.222;18.670;2023-04-25T12:37:38;99257.91;;;15.28;55.08
67052;BME280;53957;47.222;18.670;2023-04-25T12:40:41;99254.00;;;15.13;58.03
67052;BME280;53957;47.222;18.670;2023-04-25T12:43:44;99245.72;;;16.13;53.45
67052;BME280;53957;47.222;18.670;2023-04-25T12:46:48;99243.59;;;16.50;52.24
67052;BME280;53957;47.222;18.670;2023-04-25T12:49:51;99250.56;;;16.67;51.73
67052;BME280;53957;47.222;18.670;2023-04-25T12:52:54;99240.16;;;16.66;52.37
67052;BME280;53957;47.222;18.670;2023-04-25T12:55:57;99238.41;;;17.05;50.62
67052;BME280;53957;47.222;18.670;2023-04-25T12:59:01;99228.47;;;17.10;53.00
67052;BME280;53957;47.222;18.670;2023-04-25T13:02:05;99228.31;;;17.38;54.34
67052;BME280;53957;47.222;18.670;2023-04-25T13:05:10;99230.69;;;17.59;50.20
67052;BME280;53957;47.222;18.670;2023-04-25T13:08:13;99239.03;;;17.34;47.72
67052;BME280;53957;47.222;18.670;2023-04-25T13:11:16;99240.56;;;17.51;49.61
67052;BME280;53957;47.222;18.670;2023-04-25T13:14:20;99230.28;;;17.77;46.49
67052;BME280;53957;47.222;18.670;2023-04-25T13:17:22;99224.81;;;17.18;50.72
67052;BME280;53957;47.222;18.670;2023-04-25T13:20:27;99231.87;;;16.58;50.97
67052;BME280;53957;47.222;18.670;2023-04-25T13:23:29;99238.16;;;16.95;49.71
67052;BME280;53957;47.222;18.670;2023-04-25T13:26:33;99224.16;;;16.89;51.24
67052;BME280;53957;47.222;18.670;2023-04-25T13:29:36;99222.34;;;16.77;51.84
67052;BME280;53957;47.222;18.670;2023-04-25T13:32:41;99222.34;;;16.77;53.57
67052;BME280;53957;47.222;18.670;2023-04-25T13:35:44;99209.03;;;17.00;51.34
67052;BME280;53957;47.222;18.670;2023-04-25T13:38:56;99222.94;;;16.70;52.83
67052;BME280;53957;47.222;18.670;2023-04-25T13:41:59;99214.94;;;16.90;55.06
67052;BME280;53957;47.222;18.670;2023-04-25T13:45:03;99218.44;;;16.74;51.94
67052;BME280;53957;47.222;18.670;2023-04-25T13:48:06;99224.94;;;16.57;51.69
67052;BME280;53957;47.222;18.670;2023-04-25T13:51:09;99219.81;;;15.80;54.58
67052;BME280;53957;47.222;18.670;2023-04-25T13:54:12;99218.03;;;16.12;53.47
67052;BME280;53957;47.222;18.670;2023-04-25T13:57:15;99209.06;;;15.92;52.11
67052;BME280;53957;47.222;18.670;2023-04-25T14:00:18;99216.22;;;16.16;50.87
67052;BME280;53957;47.222;18.670;2023-04-25T14:03:23;99212.91;;;16.07;57.46
67052;BME280;53957;47.222;18.670;2023-04-25T14:06:25;99202.44;;;16.50;54.97
67052;BME280;53957;47.222;18.670;2023-04-25T14:09:30;99209.63;;;16.30;54.55
67052;BME280;53957;47.222;18.670;2023-04-25T14:12:35;99221.88;;;16.27;54.21
67052;BME280;53957;47.222;18.670;2023-04-25T14:15:40;99208.78;;;15.97;54.83
67052;BME280;53957;47.222;18.670;2023-04-25T14:18:43;99220.41;;;15.85;54.70
67052;BME280;53957;47.222;18.670;2023-04-25T14:21:47;99223.31;;;15.68;56.56
67052;BME280;53957;47.222;18.670;2023-04-25T14:24:52;99220.56;;;15.52;58.62
67052;BME280;53957;47.222;18.670;2023-04-25T14:27:55;99217.13;;;15.92;57.87
67052;BME280;53957;47.222;18.670;2023-04-25T14:30:58;99216.37;;;15.67;57.44
67052;BME280;53957;47.222;18.670;2023-04-25T14:34:02;99214.53;;;15.55;59.80
67052;BME280;53957;47.222;18.670;2023-04-25T14:37:05;99223.75;;;15.29;59.73
67052;BME280;53957;47.222;18.670;2023-04-25T14:40:08;99218.91;;;15.59;60.03
67052;BME280;53957;47.222;18.670;2023-04-25T14:43:13;99225.94;;;15.52;61.73
67052;BME280;53957;47.222;18.670;2023-04-25T14:46:16;99216.16;;;15.72;61.10
67052;BME280;53957;47.222;18.670;2023-04-25T14:49:19;99221.97;;;15.21;63.11
67052;BME280;53957;47.222;18.670;2023-04-25T14:52:22;99216.44;;;15.42;62.58
67052;BME280;53957;47.222;18.670;2023-04-25T14:55:26;99210.53;;;15.89;60.95
67052;BME280;53957;47.222;18.670;2023-04-25T14:58:30;99205.97;;;16.22;60.32
67052;BME280;53957;47.222;18.670;2023-04-25T15:01:33;99203.22;;;16.34;59.89
67052;BME280;53957;47.222;18.670;2023-04-25T15:04:37;99201.66;;;16.65;59.70
67052;BME280;53957;47.222;18.670;2023-04-25T15:07:40;99202.53;;;16.37;61.12
67052;BME280;53957;47.222;18.670;2023-04-25T15:10:44;99212.75;;;16.16;56.97
67052;BME280;53957;47.222;18.670;2023-04-25T15:13:47;99217.88;;;16.21;58.64
67052;BME280;53957;47.222;18.670;2023-04-25T15:16:51;99212.81;;;16.03;57.59
67052;BME280;53957;47.222;18.670;2023-04-25T15:20:14;99220.25;;;15.94;58.03
67052;BME280;53957;47.222;18.670;2023-04-25T15:23:41;99219.94;;;16.12;59.98
67052;BME280;53957;47.222;18.670;2023-04-25T15:26:44;99220.06;;;15.87;59.02
67052;BME280;53957;47.222;18.670;2023-04-25T15:29:49;99222.66;;;15.30;60.36
67052;BME280;53957;47.222;18.670;2023-04-25T15:32:52;99229.13;;;15.29;60.21
67052;BME280;53957;47.222;18.670;2023-04-25T15:35:56;99232.41;;;14.85;63.95
67052;BME280;53957;47.222;18.670;2023-04-25T15:39:20;99243.88;;;14.61;65.86
67052;BME280;53957;47.222;18.670;2023-04-25T15:42:24;99238.47;;;14.36;68.53
67052;BME280;53957;47.222;18.670;2023-04-25T15:45:27;99248.50;;;14.27;70.61
67052;BME280;53957;47.222;18.670;2023-04-25T15:48:32;99243.41;;;13.79;73.53
67052;BME280;53957;47.222;18.670;2023-04-25T15:51:35;99251.56;;;14.04;72.51
67052;BME280;53957;47.222;18.670;2023-04-25T15:54:38;99251.94;;;13.94;72.48
67052;BME280;53957;47.222;18.670;2023-04-25T15:57:41;99255.13;;;14.08;71.01
67052;BME280;53957;47.222;18.670;2023-04-25T16:00:44;99252.25;;;14.13;67.29